createdAt,value
2023-01-19T00:40:06.859Z,66.60
2023-01-19T00:42:41.372Z,66.80
2023-01-19T00:45:12.826Z,67.00
2023-01-19T00:47:44.148Z,66.70
2023-01-19T00:50:17.635Z,66.80
2023-01-19T00:52:46.775Z,67.00
2023-01-19T00:55:28.181Z,67.00
2023-01-19T00:57:57.242Z,67.00
2023-01-19T01:00:28.963Z,67.10
2023-01-19T01:02:57.694Z,67.10
2023-01-19T01:05:26.454Z,67.10
2023-01-19T01:07:55.346Z,67.30
2023-01-19T01:10:27.834Z,67.50
2023-01-19T01:13:22.383Z,67.30
2023-01-19T01:15:48.254Z,67.20
2023-01-19T01:18:17.325Z,67.10
2023-01-19T01:20:48.804Z,67.40
2023-01-19T01:23:25.813Z,67.80
2023-01-19T01:25:56.563Z,67.00
2023-01-19T01:28:28.202Z,67.10
2023-01-19T01:30:57.705Z,66.90
2023-01-19T01:33:41.355Z,66.70
2023-01-19T01:40:00.266Z,66.70
2023-01-19T01:42:51.307Z,66.70
2023-01-19T01:45:31.136Z,66.50
2023-01-19T01:48:24.688Z,66.30
2023-01-19T01:51:27.452Z,66.60
2023-01-19T01:54:16.464Z,66.30
2023-01-19T01:56:50.097Z,66.30
2023-01-19T01:59:27.030Z,66.40
2023-01-19T02:02:21.079Z,66.50
2023-01-19T02:04:55.347Z,66.30
2023-01-19T02:07:48.648Z,66.10
2023-01-19T02:10:35.317Z,66.40
2023-01-19T02:13:22.658Z,66.50
2023-01-19T02:15:55.976Z,66.40
2023-01-19T02:18:26.482Z,66.40
2023-01-19T02:21:01.869Z,66.20
2023-01-19T02:23:42.901Z,66.30
2023-01-19T02:26:17.933Z,66.20
2023-01-19T02:28:50.589Z,66.30
2023-01-19T02:31:20.080Z,66.30
2023-01-19T02:33:49.835Z,66.50
2023-01-19T02:36:21.813Z,66.40
2023-01-19T02:38:56.321Z,66.30
2023-01-19T02:41:30.495Z,66.10
2023-01-19T02:43:59.993Z,66.40
2023-01-19T02:46:35.702Z,66.20
2023-01-19T02:49:06.598Z,66.30
2023-01-19T02:51:37.056Z,66.00
2023-01-19T02:55:02.759Z,65.80
2023-01-19T02:57:52.486Z,65.70
2023-01-19T03:00:34.561Z,65.70
2023-01-19T03:03:16.662Z,65.60
2023-01-19T03:06:04.767Z,65.60
2023-01-19T03:08:44.159Z,65.50
2023-01-19T03:11:26.352Z,65.60
2023-01-19T03:14:02.437Z,65.70
2023-01-19T03:20:16.212Z,65.50
2023-01-19T03:22:45.803Z,65.90
2023-01-19T03:25:15.488Z,65.70
2023-01-19T03:28:00.443Z,65.60
2023-01-19T03:30:34.896Z,65.40
2023-01-19T03:33:11.434Z,65.50
2023-01-19T03:35:44.797Z,65.40
2023-01-19T03:38:20.371Z,65.70
2023-01-19T03:40:52.415Z,66.60
2023-01-19T03:43:30.002Z,65.70
2023-01-19T03:45:59.043Z,65.50
2023-01-19T03:48:29.495Z,66.00
2023-01-19T03:51:00.391Z,65.80
2023-01-19T03:53:31.668Z,66.20
2023-01-19T03:56:24.974Z,66.40
2023-01-19T03:59:37.112Z,66.10
2023-01-19T04:02:16.134Z,65.90
2023-01-19T04:05:00.565Z,66.00
2023-01-19T04:07:40.461Z,65.90
2023-01-19T04:10:17.629Z,65.90
2023-01-19T04:13:06.353Z,65.80
2023-01-19T05:03:08.826Z,66.10
2023-01-19T05:05:47.160Z,66.00
2023-01-19T05:08:16.145Z,65.70
2023-01-19T05:10:45.289Z,65.90
2023-01-19T05:13:19.433Z,65.90
2023-01-19T06:02:16.764Z,64.80
2023-01-19T06:04:49.322Z,65.30
2023-01-19T06:07:54.671Z,64.80
2023-01-19T06:10:33.438Z,64.50
2023-01-19T06:17:24.573Z,65.00
2023-01-19T06:20:19.942Z,65.00
2023-01-19T06:25:39.594Z,64.70
2023-01-19T06:59:33.863Z,65.50
2023-01-19T07:02:33.939Z,65.70
2023-01-19T07:20:23.635Z,65.50
2023-01-19T07:47:35.301Z,66.40
2023-01-19T07:50:14.332Z,66.30
2023-01-19T07:52:50.798Z,66.30
2023-01-19T07:55:27.809Z,66.30
2023-01-19T09:13:02.801Z,66.50
2023-01-19T09:41:26.193Z,66.20
2023-01-19T09:44:25.352Z,66.20
2023-01-19T09:47:59.650Z,66.20
2023-01-19T09:50:52.738Z,67.20
2023-01-19T09:53:48.677Z,66.40
2023-01-19T10:00:17.496Z,66.40
2023-01-19T10:03:12.119Z,66.10
2023-01-19T10:18:36.126Z,65.90
2023-01-19T10:22:00.491Z,66.10
2023-01-19T11:31:57.990Z,65.90
2023-01-19T12:42:54.320Z,57.90
2023-01-19T12:50:06.390Z,56.50
2023-01-19T13:07:40.694Z,51.30
2023-01-19T14:55:48.798Z,49.20
2023-01-19T14:58:21.377Z,49.90
2023-01-19T15:00:53.119Z,50.40
2023-01-19T15:03:53.330Z,50.30
2023-01-19T15:07:12.484Z,50.20
2023-01-19T17:56:50.460Z,53.70
2023-01-19T18:07:25.241Z,54.20
2023-01-19T18:10:39.763Z,53.90
2023-01-19T18:13:18.860Z,53.90
2023-01-19T19:13:36.182Z,54.90
2023-01-19T19:57:51.992Z,55.50
2023-01-19T20:04:20.156Z,55.70
2023-01-19T20:10:03.603Z,55.70
2023-01-19T20:12:57.514Z,56.00
2023-01-19T20:15:56.764Z,55.70
2023-01-19T20:22:10.801Z,55.80
2023-01-19T20:27:58.616Z,55.80
2023-01-19T20:30:49.434Z,56.30
2023-01-19T20:33:53.747Z,56.30
2023-01-19T20:36:42.602Z,56.00
2023-01-19T20:39:52.191Z,56.20
2023-01-19T20:43:00.311Z,56.00
2023-01-19T20:45:59.336Z,56.40
2023-01-19T20:48:57.228Z,56.10
2023-01-19T20:52:03.275Z,56.20
2023-01-19T20:55:02.818Z,56.20
2023-01-19T21:01:31.739Z,56.00
2023-01-19T21:04:01.341Z,56.10
2023-01-19T21:06:33.567Z,56.50
2023-01-19T21:09:02.416Z,56.30
2023-01-19T21:11:55.010Z,56.40
2023-01-19T21:14:40.540Z,56.20
2023-01-19T21:17:37.072Z,56.40
2023-01-19T21:20:26.497Z,56.40
2023-01-19T21:23:07.526Z,56.20
2023-01-19T21:26:04.392Z,56.60
2023-01-19T21:29:01.275Z,56.20
2023-01-19T21:31:52.705Z,56.50
2023-01-19T21:34:55.555Z,56.20
2023-01-19T21:37:45.669Z,56.30
2023-01-19T21:40:55.811Z,56.70
2023-01-19T21:43:58.623Z,56.30
2023-01-19T21:46:58.442Z,56.40
2023-01-19T21:54:29.398Z,56.30
2023-01-19T22:01:20.900Z,56.40
2023-01-19T22:04:50.040Z,56.60
2023-01-19T22:07:57.555Z,56.70
2023-01-19T22:15:33.840Z,56.60
2023-01-19T22:21:33.208Z,56.80
2023-01-19T22:25:00.631Z,56.50
2023-01-19T22:27:50.249Z,56.50
2023-01-19T22:30:45.396Z,57.00
2023-01-19T22:33:39.272Z,56.80
2023-01-19T22:36:25.379Z,56.70
2023-01-19T22:39:35.064Z,56.60
2023-01-19T22:42:22.615Z,56.90
2023-01-19T22:45:07.117Z,57.10
2023-01-19T22:48:00.998Z,57.10
2023-01-19T22:50:51.433Z,57.00
2023-01-19T22:54:02.394Z,57.00
2023-01-19T22:59:55.065Z,57.10
2023-01-19T23:02:54.002Z,57.30
2023-01-19T23:05:56.152Z,57.20
2023-01-19T23:08:38.496Z,57.20
2023-01-19T23:11:30.310Z,57.40
2023-01-19T23:14:41.457Z,57.20
2023-01-19T23:17:34.909Z,57.30
2023-01-19T23:20:37.900Z,57.60
2023-01-19T23:23:33.127Z,57.40
2023-01-19T23:26:35.421Z,57.40
2023-01-19T23:29:39.111Z,57.40
2023-01-19T23:33:02.930Z,57.70
2023-01-19T23:36:20.281Z,57.60
2023-01-19T23:39:39.106Z,57.70
2023-01-19T23:42:33.198Z,57.80
2023-01-19T23:45:37.433Z,57.80
2023-01-19T23:48:30.415Z,57.90
2023-01-19T23:51:34.997Z,57.80
2023-01-19T23:54:28.899Z,57.90
